Time;durP1;ratioP1;P1;durP2;ratioP2;P2;SDS_P1;SDS_P2;PMS_P1;PMS_P2;Temp;Humidity;BMP_temperature;BMP_pressure;BME280_temperature;BME280_humidity;BME280_pressure;Samples;Min_cycle;Max_cycle;Signal;HPM_P1;HPM_P2
2023/03/20 00:02:19;;;;;;;36.28;4.63;;;;;;;6.42;92.91;100151.84;10373115;28;20046;-82
2023/03/20 00:07:20;;;;;;;32.75;4.68;;;;;;;5.75;92.77;100046.47;10372307;28;20034;-82
2023/03/20 00:12:25;;;;;;;33.95;4.57;;;;;;;5.91;94.39;100085.41;10372601;28;20413;-82
2023/03/20 00:17:26;;;;;;;31.85;4.40;;;;;;;6.21;94.76;100154.72;10371343;28;20509;-82
2023/03/20 00:22:28;;;;;;;26.27;4.03;;;;;;;5.86;95.80;100104.28;10372866;28;20037;-82
2023/03/20 00:27:29;;;;;;;30.45;3.80;;;;;;;5.90;96.05;100129.38;10372852;28;20049;-82
2023/03/20 00:32:29;;;;;;;19.33;2.95;;;;;;;5.59;96.17;100091.84;10373018;28;20134;-82
2023/03/20 00:37:30;;;;;;;33.40;3.63;;;;;;;5.33;96.29;100064.47;10371823;28;20041;-82
2023/03/20 00:42:31;;;;;;;31.17;3.88;;;;;;;5.34;97.12;100058.22;10404553;28;20073;-81
2023/03/20 00:47:37;;;;;;;24.92;3.92;;;;;;;5.85;99.32;100144.78;10372344;28;20134;-82
2023/03/20 00:52:38;;;;;;;27.52;3.67;;;;;;;5.87;98.42;100157.84;10404705;28;20038;-82
2023/03/20 00:57:43;;;;;;;24.52;2.47;;;;;;;5.64;98.74;100115.16;10372246;28;20045;-82
2023/03/20 01:02:44;;;;;;;29.15;4.65;;;;;;;5.11;99.07;100034.81;10372678;28;20038;-83
2023/03/20 01:07:46;;;;;;;32.05;3.90;;;;;;;5.68;98.67;100127.06;10375604;28;20115;-83
2023/03/20 01:12:46;;;;;;;36.97;4.38;;;;;;;4.68;99.11;99966.84;10379032;28;20091;-83
2023/03/20 01:17:48;;;;;;;40.33;4.63;;;;;;;5.43;99.46;100081.06;10380396;28;20095;-83
2023/03/20 01:22:49;;;;;;;24.73;3.55;;;;;;;5.89;99.59;100155.88;10379634;28;20038;-83
2023/03/20 01:27:52;;;;;;;26.58;4.00;;;;;;;5.92;99.79;100155.59;10380110;28;20045;-83
2023/03/20 01:32:53;;;;;;;31.20;3.30;;;;;;;5.96;99.36;100172.00;10379893;28;20111;-83
2023/03/20 01:37:55;;;;;;;27.67;4.25;;;;;;;6.00;99.36;100168.09;10378454;28;20072;-82
2023/03/20 01:42:56;;;;;;;23.63;3.75;;;;;;;5.54;100.00;100096.75;10378999;28;20096;-83
2023/03/20 01:47:57;;;;;;;23.63;4.20;;;;;;;5.82;100.00;100150.34;10378358;28;20466;-83
2023/03/20 01:53:10;;;;;;;26.40;3.50;;;;;;;5.97;100.00;100161.31;10378863;28;20040;-83
2023/03/20 01:58:36;;;;;;;26.40;4.00;;;;;;;5.94;100.00;100162.41;10378132;28;20473;-82
2023/03/20 02:03:37;;;;;;;18.95;3.03;;;;;;;5.68;100.00;100130.56;10378412;28;20049;-82
2023/03/20 02:08:49;;;;;;;20.30;3.90;;;;;;;5.89;100.00;100161.16;10378446;28;20073;-83
2023/03/20 02:13:56;;;;;;;19.23;3.72;;;;;;;5.98;100.00;100170.03;10377999;28;20092;-86
2023/03/20 02:18:57;;;;;;;26.55;3.40;;;;;;;5.69;100.00;100126.13;10376231;28;20498;-86
2023/03/20 02:24:14;;;;;;;25.95;4.20;;;;;;;6.05;100.00;100165.88;10378212;28;20049;-85
2023/03/20 02:29:30;;;;;;;29.10;4.03;;;;;;;5.84;100.00;100137.88;10377911;28;20073;-85
2023/03/20 02:34:30;;;;;;;24.38;3.65;;;;;;;5.72;100.00;100160.09;10409444;28;20066;-85
2023/03/20 02:39:51;;;;;;;22.50;3.50;;;;;;;5.13;100.00;100097.88;10408226;28;20045;-85
2023/03/20 02:45:07;;;;;;;52.60;11.48;;;;;;;5.46;100.00;100150.13;10392420;28;20045;-87
2023/03/20 02:50:31;;;;;;;37.08;10.07;;;;;;;5.29;100.00;100121.00;10417826;28;20037;-84
2023/03/20 02:55:51;;;;;;;;;;;;;;;5.72;100.00;100160.91;10388991;28;20038;-85
2023/03/20 03:00:57;;;;;;;28.42;6.38;;;;;;;4.80;100.00;100034.97;10372845;28;19917;-85
2023/03/20 03:06:05;;;;;;;23.08;4.70;;;;;;;5.63;100.00;100160.94;10370143;28;20074;-85
2023/03/20 03:11:08;;;;;;;29.92;4.00;;;;;;;5.15;100.00;100059.91;10371378;28;20091;-85
2023/03/20 03:16:15;;;;;;;31.05;4.25;;;;;;;5.80;100.00;100157.56;10407706;28;20389;-85
2023/03/20 03:21:17;;;;;;;36.33;4.97;;;;;;;5.24;100.00;100084.56;10375406;28;20041;-86
2023/03/20 03:26:30;;;;;;;43.95;9.63;;;;;;;5.07;100.00;100085.28;10398292;28;20056;-84
2023/03/20 03:31:31;;;;;;;30.05;5.93;;;;;;;5.16;100.00;100168.69;10412747;28;20046;-81
2023/03/20 03:36:50;;;;;;;37.45;7.68;;;;;;;5.20;100.00;100180.63;10374918;28;20065;-80
2023/03/20 03:42:00;;;;;;;29.80;4.80;;;;;;;5.12;100.00;100177.84;10374045;28;20042;-88
2023/03/20 03:47:06;;;;;;;25.38;3.92;;;;;;;5.20;100.00;100186.69;10376977;28;20049;-80
2023/03/20 03:52:11;;;;;;;18.98;3.47;;;;;;;5.12;100.00;100167.31;10373462;28;20038;-78
2023/03/20 03:57:15;;;;;;;18.38;3.08;;;;;;;5.18;100.00;100135.16;10373731;28;20050;-79
2023/03/20 04:02:18;;;;;;;16.90;3.90;;;;;;;5.59;100.00;100167.44;10372032;28;20065;-79
2023/03/20 04:07:20;;;;;;;16.60;3.00;;;;;;;5.87;100.00;100200.03;10372970;28;20092;-79
2023/03/20 04:12:43;;;;;;;12.93;3.08;;;;;;;6.27;100.00;100193.72;10373272;28;20042;-81
2023/03/20 04:17:44;;;;;;;15.98;3.20;;;;;;;6.52;100.00;100194.84;10372617;28;20050;-88
2023/03/20 04:22:45;;;;;;;23.52;2.58;;;;;;;6.43;99.13;100159.63;10373412;28;20046;-80
2023/03/20 04:27:46;;;;;;;12.00;2.40;;;;;;;6.62;99.48;100193.84;10372569;28;20049;-81
2023/03/20 04:32:47;;;;;;;45.25;3.65;;;;;;;6.45;99.94;100168.22;10371947;28;20139;-82
2023/03/20 04:37:48;;;;;;;30.67;2.58;;;;;;;6.85;100.00;100193.47;10383261;28;20044;-78
2023/03/20 04:42:48;;;;;;;13.55;2.30;;;;;;;6.75;99.79;100137.22;10372595;28;20137;-77
2023/03/20 04:47:49;;;;;;;16.67;2.85;;;;;;;7.20;99.31;100184.75;10399450;28;20096;-78
2023/03/20 04:52:50;;;;;;;27.30;3.83;;;;;;;6.80;99.58;100093.56;10397880;28;20091;-78
2023/03/20 04:57:51;;;;;;;9.55;3.97;;;;;;;7.56;99.62;100190.03;10372108;28;20072;-78
2023/03/20 05:02:54;;;;;;;14.18;5.72;;;;;;;7.27;99.13;100089.88;10372243;28;20057;-78
2023/03/20 05:07:55;;;;;;;10.77;3.97;;;;;;;8.07;98.10;100193.72;10371631;28;20034;-78
2023/03/20 05:12:56;;;;;;;11.88;3.35;;;;;;;8.07;97.74;100185.78;10371779;28;20576;-78
2023/03/20 05:17:57;;;;;;;9.25;2.60;;;;;;;7.68;97.41;100122.72;10371624;28;20045;-78
2023/03/20 05:22:58;;;;;;;10.13;2.45;;;;;;;8.07;97.15;100137.34;10371073;28;20034;-78
2023/03/20 05:27:59;;;;;;;11.68;3.25;;;;;;;8.29;95.66;100106.88;10371783;28;20092;-78
2023/03/20 05:33:00;;;;;;;12.88;2.78;;;;;;;8.87;94.77;100138.69;10371807;28;20054;-77
2023/03/20 05:38:00;;;;;;;15.43;3.55;;;;;;;9.55;94.18;100211.84;10371446;28;20421;-78
2023/03/20 05:43:01;;;;;;;16.23;5.25;;;;;;;9.56;93.82;100173.72;10402620;28;20527;-78
2023/03/20 05:48:02;;;;;;;15.95;3.10;;;;;;;10.09;92.83;100191.94;10371345;28;20070;-78
2023/03/20 05:53:03;;;;;;;9.30;2.80;;;;;;;10.35;91.49;100191.72;10372161;28;20042;-77
2023/03/20 05:58:04;;;;;;;8.18;2.15;;;;;;;10.65;90.23;100192.78;10410604;28;20493;-77
2023/03/20 06:03:08;;;;;;;10.80;2.53;;;;;;;10.61;89.67;100130.41;10378332;28;20041;-78
2023/03/20 06:08:08;;;;;;;12.37;2.70;;;;;;;11.23;86.80;100154.28;10377574;28;20053;-77
2023/03/20 06:13:09;;;;;;;13.43;4.00;;;;;;;11.82;85.56;100191.75;10377908;28;20429;-78
2023/03/20 06:18:10;;;;;;;15.38;2.92;;;;;;;11.56;84.08;100095.53;10409249;28;20037;-78
2023/03/20 06:23:11;;;;;;;14.73;3.10;;;;;;;12.30;82.24;100143.53;10378011;28;20049;-76
2023/03/20 06:28:11;;;;;;;19.65;2.97;;;;;;;12.36;77.26;100157.97;10377255;28;20450;-76
2023/03/20 06:33:12;;;;;;;10.40;2.30;;;;;;;12.47;75.78;100129.00;10377083;28;20494;-77
2023/03/20 06:38:14;;;;;;;18.63;3.33;;;;;;;12.55;73.50;100112.09;10376799;28;20050;-76
2023/03/20 06:43:14;;;;;;;15.95;3.25;;;;;;;12.45;69.39;100101.72;10376926;28;20545;-76
2023/03/20 06:48:20;;;;;;;19.55;3.05;;;;;;;13.10;69.91;100164.00;10377018;28;20133;-76
2023/03/20 06:53:21;;;;;;;25.00;3.53;;;;;;;12.92;67.25;100128.91;10376397;28;20034;-77
2023/03/20 06:58:22;;;;;;;19.05;3.10;;;;;;;13.03;67.58;100131.91;10376037;28;20519;-77
2023/03/20 07:03:22;;;;;;;24.88;3.47;;;;;;;13.21;66.68;100138.66;10375771;28;20034;-76
2023/03/20 07:08:23;;;;;;;20.98;3.33;;;;;;;13.51;65.98;100149.22;10375617;28;20099;-76
2023/03/20 07:13:25;;;;;;;18.85;3.80;;;;;;;13.10;65.57;100088.47;10374359;28;20563;-78
2023/03/20 07:18:26;;;;;;;16.63;3.20;;;;;;;13.79;65.45;100131.41;10374859;28;20119;-76
2023/03/20 07:23:30;;;;;;;17.58;3.38;;;;;;;14.19;65.14;100131.66;10375448;28;20096;-76
2023/03/20 07:28:31;;;;;;;19.85;3.75;;;;;;;14.23;63.45;100103.50;10375147;28;20087;-75
2023/03/20 07:33:32;;;;;;;16.90;3.30;;;;;;;13.86;63.73;99995.28;10374766;28;20058;-76
2023/03/20 07:38:32;;;;;;;22.27;3.75;;;;;;;14.54;62.40;100095.06;10374076;28;20509;-76
2023/03/20 07:43:33;;;;;;;22.25;4.03;;;;;;;15.02;61.38;100112.91;10406957;28;20129;-76
2023/03/20 07:48:35;;;;;;;23.63;3.78;;;;;;;15.29;62.28;100121.78;10406445;28;20088;-75
2023/03/20 07:53:35;;;;;;;20.30;4.00;;;;;;;15.47;61.44;100107.81;10373283;28;20037;-75
2023/03/20 07:58:36;;;;;;;21.60;4.40;;;;;;;15.71;61.29;100114.44;10374442;28;20452;-76
2023/03/20 08:03:38;;;;;;;24.23;3.70;;;;;;;16.03;60.12;100107.34;10373804;28;20092;-76
2023/03/20 08:08:39;;;;;;;23.58;3.67;;;;;;;16.26;59.32;100085.44;10374049;28;20525;-75
2023/03/20 08:13:39;;;;;;;14.35;3.75;;;;;;;16.10;56.95;100025.13;10373276;28;20050;-74
2023/03/20 08:18:41;;;;;;;17.85;3.78;;;;;;;16.59;59.03;100095.22;10372052;28;20042;-75
2023/03/20 08:23:42;;;;;;;14.23;3.75;;;;;;;17.13;58.54;100085.84;10372561;28;20591;-76
2023/03/20 08:28:42;;;;;;;10.98;2.85;;;;;;;16.92;56.43;100094.25;10372662;28;20038;-75
2023/03/20 08:33:45;;;;;;;47.10;22.10;;;;;;;16.79;58.53;100079.88;10372691;28;20062;-77
2023/03/20 08:38:48;;;;;;;;;;;;;;;17.07;59.21;100084.03;10372369;28;20084;-77
2023/03/20 08:43:48;;;;;;;22.30;4.50;;;;;;;16.74;58.94;100081.53;10372069;28;19925;-78
2023/03/20 08:48:49;;;;;;;19.55;6.18;;;;;;;17.01;60.66;100080.34;10371919;28;20413;-77
2023/03/20 08:53:50;;;;;;;29.48;7.72;;;;;;;17.25;61.26;100081.44;10373525;28;20038;-77
2023/03/20 08:58:53;;;;;;;26.98;4.75;;;;;;;17.07;61.41;100059.88;10372121;28;20141;-77
2023/03/20 09:03:53;;;;;;;24.92;4.05;;;;;;;16.63;62.06;100034.75;10372250;28;20120;-77
2023/03/20 09:08:56;;;;;;;19.95;5.85;;;;;;;16.85;62.73;100014.63;10371710;28;20124;-77
2023/03/20 09:13:58;;;;;;;16.60;4.47;;;;;;;17.43;62.87;100071.78;10371495;28;20049;-77
2023/03/20 09:18:58;;;;;;;18.88;3.80;;;;;;;17.31;63.00;100066.31;10371321;28;20038;-77
2023/03/20 09:23:59;;;;;;;14.93;3.40;;;;;;;17.04;62.18;100009.34;10403587;28;20409;-76
2023/03/20 09:29:00;;;;;;;19.77;7.00;;;;;;;17.10;62.84;100037.97;10375290;28;20042;-76
2023/03/20 09:34:01;;;;;;;17.60;3.75;;;;;;;17.19;63.26;100043.91;10379439;28;20104;-77
2023/03/20 09:39:02;;;;;;;14.85;3.97;;;;;;;17.42;62.36;100051.38;10379948;28;20048;-77
2023/03/20 09:44:31;;;;;;;18.20;3.67;;;;;;;17.20;62.48;99978.44;10379215;28;20095;-77
2023/03/20 09:49:32;;;;;;;12.15;3.33;;;;;;;17.74;61.79;100028.75;10378411;28;20083;-76
2023/03/20 09:54:38;;;;;;;14.57;3.00;;;;;;;17.56;61.56;99983.88;10378483;28;20046;-76
2023/03/20 09:59:39;;;;;;;15.38;3.40;;;;;;;17.71;61.93;100001.47;10377986;28;20476;-77
2023/03/20 10:04:41;;;;;;;12.80;2.95;;;;;;;17.84;61.13;100004.06;10377718;28;20141;-77
2023/03/20 10:09:44;;;;;;;18.17;3.40;;;;;;;17.93;60.53;99972.34;10378350;28;20034;-75
2023/03/20 10:15:02;;;;;;;9.55;2.90;;;;;;;18.09;60.71;100012.03;10377236;28;20049;-77
2023/03/20 10:20:15;;;;;;;9.38;2.95;;;;;;;18.12;60.70;100000.81;10378349;28;20046;-77
2023/03/20 10:25:22;;;;;;;12.65;3.63;;;;;;;18.45;60.89;99999.59;10377006;28;20161;-77
2023/03/20 10:30:38;;;;;;;8.55;2.42;;;;;;;18.52;60.68;99997.63;10377349;28;20034;-77
2023/03/20 10:35:58;;;;;;;12.45;3.08;;;;;;;17.99;60.12;99988.38;10376948;28;20119;-77
2023/03/20 10:40:59;;;;;;;11.10;2.78;;;;;;;17.64;61.82;99980.06;10376727;28;20489;-77
2023/03/20 10:46:21;;;;;;;9.70;2.97;;;;;;;17.66;61.17;99986.03;10376675;28;20490;-77
2023/03/20 10:51:45;;;;;;;11.18;2.72;;;;;;;18.06;60.82;99988.28;10376596;28;20046;-77
2023/03/20 10:56:49;;;;;;;14.23;2.28;;;;;;;18.11;59.80;99988.44;10375973;28;20050;-76
2023/03/20 11:01:51;;;;;;;9.13;2.38;;;;;;;17.73;60.17;99976.03;10408122;28;20045;-77
2023/03/20 11:07:14;;;;;;;10.95;2.53;;;;;;;17.81;60.38;99952.66;10374778;28;20096;-77
2023/03/20 11:12:18;;;;;;;13.83;2.47;;;;;;;18.06;58.86;99969.47;10375808;28;20037;-76
2023/03/20 11:17:19;;;;;;;10.52;2.65;;;;;;;17.99;59.68;99966.88;10375971;28;20469;-77
2023/03/20 11:22:22;;;;;;;11.98;2.58;;;;;;;17.82;59.54;99962.34;10376082;28;20042;-76
2023/03/20 11:27:33;;;;;;;7.63;2.13;;;;;;;17.63;59.07;99948.88;10375051;28;20041;-76
2023/03/20 11:32:39;;;;;;;11.02;2.70;;;;;;;17.32;60.11;99902.34;10374214;28;20081;-77
2023/03/20 11:37:44;;;;;;;7.82;2.80;;;;;;;17.50;60.10;99965.97;10374511;28;20080;-76
2023/03/20 11:43:12;;;;;;;9.95;2.97;;;;;;;17.59;60.41;99985.31;10372897;28;20165;-76
2023/03/20 11:48:20;;;;;;;7.03;2.55;;;;;;;17.28;60.98;99909.19;10374118;28;20104;-77
2023/03/20 11:53:27;;;;;;;9.85;2.85;;;;;;;17.37;59.66;99941.09;10372645;28;20390;-77
2023/03/20 11:58:28;;;;;;;7.13;2.75;;;;;;;17.57;60.62;99947.09;10373312;28;20060;-76
2023/03/20 12:03:43;;;;;;;14.00;2.50;;;;;;;17.54;60.81;99974.41;10373878;28;20418;-77
2023/03/20 12:08:50;;;;;;;12.65;3.88;;;;;;;17.18;61.12;99985.91;10374324;28;20092;-77
2023/03/20 12:13:54;;;;;;;25.60;17.10;;;;;;;16.72;61.90;99934.25;10373236;28;20073;-76
2023/03/20 12:19:12;;;;;;;15.15;4.82;;;;;;;16.94;62.63;99979.50;10373351;28;20037;-77
2023/03/20 12:24:18;;;;;;;9.25;2.30;;;;;;;16.85;62.27;99969.03;10373003;28;20132;-76
2023/03/20 12:29:30;;;;;;;12.85;3.35;;;;;;;16.92;62.51;99974.34;10372349;28;20048;-77
2023/03/20 12:34:37;;;;;;;11.23;2.58;;;;;;;17.02;62.45;99977.38;10371324;28;20066;-77
2023/03/20 12:39:47;;;;;;;9.77;2.53;;;;;;;16.80;60.53;99903.66;10385249;28;20069;-76
2023/03/20 12:44:57;;;;;;;12.07;1.90;;;;;;;17.48;59.94;99969.91;10409976;28;20076;-76
2023/03/20 12:50:13;;;;;;;9.82;2.08;;;;;;;17.77;60.60;99971.06;10412542;28;20041;-77
2023/03/20 12:55:35;;;;;;;8.68;2.33;;;;;;;17.74;59.67;99964.25;10410373;28;20045;-76
2023/03/20 13:01:09;;;;;;;35.85;21.65;;;;;;;17.50;60.61;99949.88;10412529;28;20049;-76
2023/03/20 13:06:22;;;;;;;16.27;6.50;;;;;;;17.41;61.10;99958.41;10420462;28;20040;-77
2023/03/20 13:11:43;;;;;;;14.85;6.70;;;;;;;17.40;61.11;99957.59;10420154;28;20219;-77
2023/03/20 13:17:12;;;;;;;12.15;5.22;;;;;;;17.26;61.22;99953.38;10409310;28;20111;-77
2023/03/20 13:22:17;;;;;;;12.40;3.00;;;;;;;17.03;61.29;99956.72;10383421;28;20048;-77
2023/03/20 13:27:26;;;;;;;7.22;2.10;;;;;;;16.88;61.79;99949.81;10408638;28;20045;-78
2023/03/20 13:33:04;;;;;;;12.30;2.65;;;;;;;16.67;61.71;99936.75;10379503;28;20054;-77
2023/03/20 13:38:18;;;;;;;9.77;2.03;;;;;;;16.29;61.13;99883.19;10370369;28;20054;-79
2023/03/20 13:43:34;;;;;;;7.93;2.30;;;;;;;16.54;61.52;99940.34;10373656;28;20045;-76
2023/03/20 13:48:37;;;;;;;18.38;10.60;;;;;;;16.52;61.57;99953.16;10411860;28;20046;-76
2023/03/20 13:53:50;;;;;;;14.68;3.22;;;;;;;16.45;61.51;99963.06;10378809;28;20041;-76
2023/03/20 13:58:57;;;;;;;11.27;2.20;;;;;;;16.36;60.84;99956.31;10379377;28;20053;-77
2023/03/20 14:03:59;;;;;;;13.75;3.05;;;;;;;15.92;60.70;99901.75;10416834;28;20045;-76
2023/03/20 14:09:00;;;;;;;11.18;2.35;;;;;;;16.14;60.19;99945.13;10417892;28;20382;-78
2023/03/20 14:14:15;;;;;;;13.60;3.50;;;;;;;16.00;59.44;99943.53;10417067;28;20124;-76
2023/03/20 14:19:23;;;;;;;20.58;3.20;;;;;;;16.06;57.80;99977.50;10412121;28;20041;-77
2023/03/20 14:24:27;;;;;;;27.58;2.85;;;;;;;15.44;56.95;99899.44;10402358;28;20418;-76
2023/03/20 14:29:28;;;;;;;19.70;2.55;;;;;;;15.77;57.12;99974.34;10410978;28;20029;-75
2023/03/20 14:34:47;;;;;;;32.05;2.92;;;;;;;15.67;55.43;99984.59;10410736;28;20421;-76
2023/03/20 14:39:57;;;;;;;23.77;2.92;;;;;;;15.46;55.14;99981.16;10412427;28;20045;-76
2023/03/20 14:45:10;;;;;;;28.33;3.42;;;;;;;15.33;56.43;99989.22;10413123;28;20041;-78
2023/03/20 14:50:11;;;;;;;27.67;3.28;;;;;;;15.20;56.85;99992.72;10401097;28;20134;-76
2023/03/20 14:55:29;;;;;;;23.30;3.33;;;;;;;14.78;55.79;99959.19;10393064;28;20203;-77
2023/03/20 15:00:35;;;;;;;39.60;4.20;;;;;;;14.94;56.05;100006.09;10375759;28;20501;-77
2023/03/20 15:05:38;;;;;;;35.58;4.20;;;;;;;14.71;56.24;100019.84;10392146;28;20040;-77
2023/03/20 15:10:48;;;;;;;53.10;5.60;;;;;;;14.67;57.27;100027.44;10416378;28;20043;-76
2023/03/20 15:16:06;;;;;;;64.70;7.45;;;;;;;14.51;57.61;100030.47;10416547;28;20045;-77
2023/03/20 15:21:15;;;;;;;62.70;6.80;;;;;;;13.59;58.44;99906.22;10411124;28;20046;-76
2023/03/20 15:26:19;;;;;;;74.63;7.95;;;;;;;14.22;59.04;100039.59;10377381;28;20520;-79
2023/03/20 15:31:29;;;;;;;70.20;8.37;;;;;;;13.81;59.42;99985.16;10415855;28;20042;-80
2023/03/20 15:36:36;;;;;;;62.38;7.78;;;;;;;13.86;58.99;100014.78;10374825;28;20449;-79
2023/03/20 15:41:37;;;;;;;90.70;9.20;;;;;;;13.56;59.33;99987.50;10374109;28;20518;-77
2023/03/20 15:46:38;;;;;;;95.50;8.98;;;;;;;13.78;60.04;100052.31;10401469;28;20041;-76
2023/03/20 15:51:39;;;;;;;99.30;10.43;;;;;;;13.65;59.34;100053.06;10392992;28;20501;-76
2023/03/20 15:56:45;;;;;;;79.22;8.85;;;;;;;13.59;59.72;100075.19;10373836;28;20037;-77
2023/03/20 16:01:50;;;;;;;89.70;9.57;;;;;;;13.39;59.94;100060.88;10408196;28;20072;-79
2023/03/20 16:06:57;;;;;;;80.88;9.38;;;;;;;13.38;59.98;100081.38;10414408;28;20048;-77
2023/03/20 16:12:00;;;;;;;86.43;9.07;;;;;;;13.26;60.08;100090.94;10413816;28;20041;-76
2023/03/20 16:17:03;;;;;;;83.78;9.75;;;;;;;13.10;60.36;100084.00;10382070;28;20050;-76
2023/03/20 16:22:11;;;;;;;89.75;9.80;;;;;;;12.93;60.97;100064.75;10373228;28;20042;-75
2023/03/20 16:27:19;;;;;;;82.78;8.88;;;;;;;12.39;61.96;100013.75;10407341;28;20049;-77
2023/03/20 16:32:37;;;;;;;85.05;8.45;;;;;;;12.76;62.34;100090.81;10391742;28;20494;-75
2023/03/20 16:37:45;;;;;;;71.78;9.10;;;;;;;12.56;63.14;100103.06;10383809;28;20069;-76
2023/03/20 16:42:46;;;;;;;94.70;9.63;;;;;;;12.50;63.73;100112.66;10407285;28;20425;-78
2023/03/20 16:47:48;;;;;;;86.47;7.88;;;;;;;12.38;64.48;100099.97;10414774;28;20042;-76
2023/03/20 16:52:54;;;;;;;116.07;11.27;;;;;;;12.24;65.92;100122.97;10391218;28;20095;-76
2023/03/20 16:57:59;;;;;;;105.03;11.63;;;;;;;11.97;67.82;100101.28;10411585;28;20053;-76
2023/03/20 17:03:43;;;;;;;101.15;11.02;;;;;;;11.95;72.16;100131.75;10412734;28;20436;-76
2023/03/20 17:08:48;;;;;;;134.48;14.00;;;;;;;11.66;72.83;100136.00;10388682;28;20049;-76
2023/03/20 17:13:49;;;;;;;136.48;14.23;;;;;;;11.50;73.68;100139.63;10381952;28;20038;-76
2023/03/20 17:19:04;;;;;;;121.00;13.18;;;;;;;11.42;77.69;100143.16;10374712;28;20038;-76
2023/03/20 17:24:05;;;;;;;141.02;14.20;;;;;;;10.91;76.32;100089.69;10388948;28;20073;-77
2023/03/20 17:29:06;;;;;;;150.48;14.60;;;;;;;11.16;77.86;100159.50;10371760;28;20037;-77
2023/03/20 17:34:12;;;;;;;133.25;14.65;;;;;;;10.99;82.47;100149.97;10381176;28;20057;-78
2023/03/20 17:39:18;;;;;;;158.25;14.68;;;;;;;10.79;84.25;100157.53;10390843;28;20528;-77
2023/03/20 17:44:19;;;;;;;164.00;15.05;;;;;;;10.12;83.60;100066.84;10378082;28;20045;-78
2023/03/20 17:49:25;;;;;;;146.70;14.35;;;;;;;10.39;85.09;100129.34;10374071;28;20037;-77
2023/03/20 17:54:26;;;;;;;153.48;15.10;;;;;;;10.42;86.46;100148.41;10378208;28;20046;-77
2023/03/20 17:59:29;;;;;;;147.80;15.73;;;;;;;10.22;87.93;100133.84;10377485;28;20433;-77
2023/03/20 18:04:30;;;;;;;136.43;16.33;;;;;;;10.14;88.37;100134.72;10378559;28;20100;-77
2023/03/20 18:09:31;;;;;;;184.43;33.90;;;;;;;10.15;89.75;100152.28;10378168;28;20398;-77
2023/03/20 18:14:32;;;;;;;181.77;28.70;;;;;;;10.10;89.75;100138.69;10378048;28;20052;-78
2023/03/20 18:19:33;;;;;;;151.10;20.63;;;;;;;10.15;90.03;100143.50;10388838;28;20383;-77
2023/03/20 18:24:35;;;;;;;134.38;18.10;;;;;;;10.16;90.39;100142.47;10416440;28;20053;-77
2023/03/20 18:29:36;;;;;;;167.18;18.17;;;;;;;9.75;90.99;100078.88;10393943;28;20052;-78
2023/03/20 18:34:37;;;;;;;165.60;18.67;;;;;;;10.17;90.72;100152.94;10377425;28;20511;-78
2023/03/20 18:39:37;;;;;;;150.02;15.50;;;;;;;10.22;90.64;100155.06;10376393;28;20429;-78
2023/03/20 19:17:43;;;;;;;122.53;17.33;;;;;;;10.31;96.78;100175.31;10531304;28;20476;-77
2023/03/20 19:22:44;;;;;;;112.18;16.08;;;;;;;9.88;95.82;100126.13;10508555;28;20484;-78
2023/03/20 19:27:45;;;;;;;119.07;14.88;;;;;;;10.19;95.03;100166.84;10468766;28;20033;-79
2023/03/20 19:32:45;;;;;;;136.18;15.50;;;;;;;10.01;94.68;100140.53;10457108;28;20057;-79
2023/03/20 19:37:46;;;;;;;125.20;14.20;;;;;;;10.12;94.59;100167.72;10454201;28;20090;-78
2023/03/20 19:42:47;;;;;;;127.30;15.30;;;;;;;10.11;94.33;100166.91;10476438;28;20053;-77
2023/03/20 19:47:48;;;;;;;121.40;14.65;;;;;;;9.69;94.49;100111.38;10477458;28;20049;-77
2023/03/20 19:52:49;;;;;;;132.18;14.98;;;;;;;9.55;94.78;100089.03;10447904;28;20148;-78
2023/03/20 19:57:50;;;;;;;132.25;14.82;;;;;;;9.83;94.89;100139.91;10447255;28;20049;-76
2023/03/20 20:02:51;;;;;;;131.55;13.85;;;;;;;9.77;94.86;100137.91;10446554;28;20049;-76
2023/03/20 20:07:52;;;;;;;152.15;16.75;;;;;;;9.69;94.95;100132.59;10446443;28;20455;-76
2023/03/20 20:12:54;;;;;;;128.73;15.18;;;;;;;9.68;95.64;100147.69;10445525;28;20136;-76
2023/03/20 20:17:55;;;;;;;140.43;21.35;;;;;;;9.50;96.92;100147.06;10423381;28;20124;-77
2023/03/20 20:22:56;;;;;;;141.45;19.45;;;;;;;9.37;96.65;100119.22;10418146;28;20073;-76
2023/03/20 20:27:57;;;;;;;146.65;20.83;;;;;;;9.28;96.24;100108.78;10418734;28;20532;-76
2023/03/20 20:32:59;;;;;;;145.40;22.30;;;;;;;9.37;96.65;100132.47;10418566;28;20048;-76
2023/03/20 20:38:00;;;;;;;148.32;19.40;;;;;;;9.09;96.91;100091.34;10418831;28;20562;-77
2023/03/20 20:43:00;;;;;;;142.55;18.88;;;;;;;9.12;97.09;100093.69;10417564;28;20091;-76
2023/03/20 20:48:06;;;;;;;125.13;18.80;;;;;;;9.30;97.22;100122.69;10418075;28;20064;-75
2023/03/20 20:53:07;;;;;;;149.27;20.95;;;;;;;9.36;96.35;100129.97;10417100;28;20148;-75
2023/03/20 20:58:07;;;;;;;141.18;18.65;;;;;;;9.26;96.30;100095.69;10418367;28;20132;-76
2023/03/20 21:03:08;;;;;;;138.30;16.63;;;;;;;9.00;96.05;100037.53;10417370;28;20046;-76
2023/03/20 21:08:10;;;;;;;137.85;16.40;;;;;;;9.44;95.56;100097.34;10416857;28;20492;-77
2023/03/20 21:13:12;;;;;;;138.80;15.05;;;;;;;9.27;95.22;100067.34;10416852;28;20054;-77
2023/03/20 21:18:13;;;;;;;137.95;16.88;;;;;;;9.43;95.46;100098.34;10415641;28;20045;-77
2023/03/20 21:23:14;;;;;;;128.85;15.95;;;;;;;9.58;95.73;100133.78;10416940;28;20119;-77
2023/03/20 21:28:15;;;;;;;134.57;16.33;;;;;;;9.13;96.85;100088.22;10414853;28;20099;-77
2023/03/20 21:33:16;;;;;;;143.40;18.25;;;;;;;9.18;97.77;100135.41;10414610;28;20045;-77
2023/03/20 21:38:18;;;;;;;161.23;17.35;;;;;;;9.06;98.63;100126.13;10426345;28;20048;-76
2023/03/20 21:43:20;;;;;;;147.93;17.85;;;;;;;9.04;98.71;100141.38;10415624;28;20049;-78
2023/03/20 21:48:21;;;;;;;160.38;17.67;;;;;;;8.92;98.40;100109.06;10415550;28;20456;-78
2023/03/20 21:53:22;;;;;;;162.00;17.15;;;;;;;9.16;97.97;100140.06;10414764;28;20092;-78
2023/03/20 21:58:23;;;;;;;141.38;16.45;;;;;;;9.11;97.45;100124.66;10414554;28;20554;-78
2023/03/20 22:03:23;;;;;;;155.25;17.92;;;;;;;9.21;97.00;100126.31;10414971;28;20128;-78
2023/03/20 22:08:24;;;;;;;132.25;14.88;;;;;;;9.44;96.66;100137.09;10414342;28;20041;-78
2023/03/20 22:13:25;;;;;;;149.23;17.98;;;;;;;9.50;96.41;100139.91;10413939;28;20056;-78
2023/03/20 22:18:26;;;;;;;153.48;17.60;;;;;;;9.38;96.48;100110.25;10414509;28;20131;-77
2023/03/20 22:23:28;;;;;;;146.95;19.02;;;;;;;9.53;96.98;100139.59;10413666;28;20084;-77
2023/03/20 22:28:30;;;;;;;152.98;17.10;;;;;;;9.53;97.13;100134.28;10413644;28;20041;-77
2023/03/20 22:33:31;;;;;;;135.88;15.98;;;;;;;9.56;96.79;100128.63;10414012;28;20450;-77
2023/03/20 22:38:32;;;;;;;114.00;14.45;;;;;;;9.65;96.25;100124.16;10413752;28;20048;-77
2023/03/20 22:43:32;;;;;;;145.80;17.50;;;;;;;9.31;95.71;100074.81;10412776;28;20052;-76
2023/03/20 22:48:34;;;;;;;146.88;16.83;;;;;;;9.70;95.94;100123.69;10413718;28;20068;-76
2023/03/20 22:53:35;;;;;;;150.95;22.05;;;;;;;9.68;96.22;100131.78;10412878;28;20041;-76
2023/03/20 22:58:36;;;;;;;229.57;80.97;;;;;;;9.55;96.53;100105.78;10413796;28;20045;-76
2023/03/20 23:03:38;;;;;;;137.00;28.95;;;;;;;9.70;96.24;100111.25;10412687;28;20033;-76
2023/03/20 23:08:38;;;;;;;141.10;17.35;;;;;;;9.65;95.77;100096.81;10413859;28;20046;-76
2023/03/20 23:13:39;;;;;;;148.63;16.48;;;;;;;9.72;95.45;100134.94;10412943;28;20057;-77
2023/03/20 23:18:40;;;;;;;153.98;17.80;;;;;;;9.65;94.93;100123.34;10412278;28;20040;-77
2023/03/20 23:23:41;;;;;;;148.32;21.25;;;;;;;9.65;95.22;100150.69;10412239;28;20045;-78
2023/03/20 23:28:45;;;;;;;136.57;17.50;;;;;;;9.13;95.53;100056.44;10412467;28;20038;-77
2023/03/20 23:33:52;;;;;;;143.80;16.07;;;;;;;9.66;96.12;100146.22;10410880;28;20037;-77
2023/03/20 23:38:53;;;;;;;97.93;12.85;;;;;;;8.99;95.07;100019.97;10411998;28;20041;-78